South Euclid, Ohio
Current Conditions -  °F | °C
As of 8:45 AM on Wednesday 28 Jan 2015 (Local Time) from KCGF Reporting Station
Clear Clear  
Wind Chill:   Ceiling: Unl
Heat Index: 14°   Visibility: 20mi
Dew Point: 12°   Wind: 7mph
Humidity: 93%   Direction: 280°W
Pressure: 30.35"   Gusts: NA
Location:  41.5271°N, 81.5319°W
Report Text: KCGF 281345Z 28006KT 20SM SKC M10/M11 A3035
Loading
Personal Weather Stations






























Interactive Weather Map New forecast layout! Learn more

10-Day Weather Forecast

Advertisements
Track Severe Weather on mobile